createdAt,value
2018-09-15T00:00:40.384Z,16.26
2018-09-15T00:03:08.693Z,16.10
2018-09-15T00:05:36.733Z,16.16
2018-09-15T00:08:04.752Z,16.29
2018-09-15T00:10:32.901Z,16.26
2018-09-15T00:13:00.965Z,16.27
2018-09-15T00:15:28.989Z,16.21
2018-09-15T00:17:57.671Z,16.09
2018-09-15T00:20:25.765Z,16.07
2018-09-15T00:22:53.860Z,16.08
2018-09-15T00:25:22.195Z,15.98
2018-09-15T00:27:50.227Z,15.88
2018-09-15T00:30:18.307Z,15.94
2018-09-15T00:32:46.325Z,15.97
2018-09-15T00:35:14.607Z,15.96
2018-09-15T00:37:42.632Z,15.88
2018-09-15T00:40:10.685Z,15.85
2018-09-15T00:42:38.703Z,15.77
2018-09-15T00:45:06.733Z,15.84
2018-09-15T00:47:34.750Z,15.84
2018-09-15T00:50:02.752Z,15.78
2018-09-15T00:52:30.913Z,15.76
2018-09-15T00:54:58.926Z,15.77
2018-09-15T00:57:27.217Z,15.68
2018-09-15T00:59:55.260Z,15.65
2018-09-15T01:02:23.296Z,15.59
2018-09-15T01:04:51.328Z,15.53
2018-09-15T01:07:19.642Z,15.49
2018-09-15T01:09:47.706Z,15.46
2018-09-15T01:12:15.886Z,15.20
2018-09-15T01:14:43.905Z,15.17
2018-09-15T01:17:11.957Z,15.14
2018-09-15T01:19:40.071Z,15.10
2018-09-15T01:22:08.445Z,14.95
2018-09-15T01:24:36.521Z,14.82
2018-09-15T01:27:04.701Z,14.65
2018-09-15T01:29:32.738Z,14.67
2018-09-15T01:32:00.812Z,14.67
2018-09-15T01:34:28.842Z,14.65
2018-09-15T01:36:57.136Z,14.60
2018-09-15T01:39:25.144Z,14.46
2018-09-15T01:41:53.260Z,14.39
2018-09-15T01:44:21.267Z,14.34
2018-09-15T01:46:49.312Z,14.26
2018-09-15T01:49:17.348Z,14.26
2018-09-15T01:51:45.357Z,14.19
2018-09-15T01:54:13.408Z,14.24
2018-09-15T01:56:41.408Z,14.15
2018-09-15T01:59:09.502Z,14.05
2018-09-15T02:01:37.541Z,13.98
2018-09-15T02:04:05.577Z,14.03
2018-09-15T02:06:33.598Z,13.97
2018-09-15T02:09:01.771Z,13.98
2018-09-15T02:11:29.803Z,13.93
2018-09-15T02:13:58.012Z,13.87
2018-09-15T02:16:26.040Z,13.81
2018-09-15T02:18:54.037Z,13.87
2018-09-15T02:21:22.180Z,13.65
2018-09-15T02:23:50.199Z,13.58
2018-09-15T02:26:18.344Z,13.61
2018-09-15T02:28:46.380Z,13.74
2018-09-15T02:31:14.521Z,13.82
2018-09-15T02:33:42.574Z,13.65
2018-09-15T02:36:10.740Z,13.68
2018-09-15T02:38:38.777Z,13.71
2018-09-15T02:41:06.785Z,13.67
2018-09-15T02:43:34.821Z,13.68
2018-09-15T02:46:02.860Z,13.82
2018-09-15T02:48:31.008Z,13.73
2018-09-15T02:50:59.013Z,13.87
2018-09-15T02:53:33.834Z,13.79
2018-09-15T02:56:01.898Z,13.76
2018-09-15T02:58:29.909Z,13.81
2018-09-15T03:00:58.193Z,13.78
2018-09-15T03:03:26.258Z,13.86
2018-09-15T03:05:54.506Z,13.79
2018-09-15T03:08:22.563Z,13.96
2018-09-15T03:10:50.621Z,14.07
2018-09-15T03:13:18.677Z,13.92
2018-09-15T03:15:46.684Z,13.92
2018-09-15T03:18:14.742Z,13.87
2018-09-15T03:20:42.781Z,13.83
2018-09-15T03:23:10.826Z,13.83
2018-09-15T03:25:38.860Z,13.86
2018-09-15T03:28:06.896Z,13.74
2018-09-15T03:30:35.027Z,13.77
2018-09-15T03:33:03.000Z,13.68
2018-09-15T03:35:31.148Z,13.69
2018-09-15T03:37:59.135Z,13.71
2018-09-15T03:40:27.304Z,13.66
2018-09-15T03:42:55.342Z,13.68
2018-09-15T03:45:23.442Z,13.71
2018-09-15T03:47:51.483Z,13.78
2018-09-15T03:50:19.772Z,13.77
2018-09-15T03:52:47.757Z,13.74
2018-09-15T03:55:15.791Z,13.75
2018-09-15T03:57:43.826Z,13.61
2018-09-15T04:00:11.880Z,13.59
2018-09-15T04:02:39.971Z,13.51
2018-09-15T04:05:08.000Z,13.58
2018-09-15T04:07:36.021Z,13.42
2018-09-15T04:10:04.041Z,13.44
2018-09-15T04:12:32.158Z,13.59
2018-09-15T04:15:00.205Z,13.39
2018-09-15T04:17:28.246Z,13.34
2018-09-15T04:19:56.252Z,13.27
2018-09-15T04:22:24.378Z,13.24
2018-09-15T04:24:52.464Z,13.11
2018-09-15T04:27:20.457Z,13.23
2018-09-15T04:29:48.452Z,13.14
2018-09-15T04:32:16.504Z,13.24
2018-09-15T04:34:44.490Z,13.29
2018-09-15T04:37:12.564Z,13.31
2018-09-15T04:39:40.569Z,13.28
2018-09-15T04:42:08.672Z,13.15
2018-09-15T04:44:36.674Z,13.22
2018-09-15T04:47:04.913Z,13.33
2018-09-15T04:49:32.898Z,13.27
2018-09-15T04:52:00.996Z,13.23
2018-09-15T04:54:29.036Z,13.31
2018-09-15T04:56:57.029Z,13.36
2018-09-15T04:59:25.042Z,13.41
2018-09-15T05:01:53.066Z,13.44
2018-09-15T05:04:21.157Z,13.28
2018-09-15T05:06:49.183Z,13.32
2018-09-15T05:09:17.227Z,13.27
2018-09-15T05:11:45.242Z,13.23
2018-09-15T05:14:13.237Z,13.22
2018-09-15T05:16:41.253Z,13.19
2018-09-15T05:19:09.269Z,13.29
2018-09-15T05:21:37.285Z,13.19
2018-09-15T05:24:05.582Z,13.28
2018-09-15T05:26:33.777Z,13.35
2018-09-15T05:29:02.568Z,13.48
2018-09-15T05:31:30.610Z,13.57
2018-09-15T05:33:58.605Z,14.01
2018-09-15T05:36:26.700Z,14.70
2018-09-15T05:38:54.829Z,15.68
2018-09-15T05:41:22.885Z,16.81
2018-09-15T05:43:50.896Z,17.81
2018-09-15T05:46:19.031Z,18.63
2018-09-15T05:48:47.043Z,19.56
2018-09-15T05:51:15.076Z,20.32
2018-09-15T05:53:43.117Z,21.33
2018-09-15T05:56:11.202Z,21.69
2018-09-15T05:58:39.252Z,21.47
2018-09-15T06:01:07.449Z,21.11
2018-09-15T06:03:35.478Z,20.65
2018-09-15T06:06:03.873Z,19.98
2018-09-15T06:08:31.872Z,18.93
2018-09-15T06:10:59.917Z,18.32
2018-09-15T06:13:27.993Z,17.77
2018-09-15T06:15:56.070Z,17.19
2018-09-15T06:18:24.169Z,16.39
2018-09-15T06:20:52.518Z,15.94
2018-09-15T06:23:20.522Z,15.74
2018-09-15T06:25:48.559Z,15.46
2018-09-15T06:28:16.552Z,14.98
2018-09-15T06:30:44.580Z,15.02
2018-09-15T06:33:12.622Z,14.95
2018-09-15T06:35:40.646Z,14.86
2018-09-15T06:38:08.732Z,14.80
2018-09-15T06:40:36.750Z,14.91
2018-09-15T06:43:05.771Z,14.85
2018-09-15T06:45:33.868Z,14.93
2018-09-15T06:48:01.820Z,14.90
2018-09-15T06:50:29.867Z,14.97
2018-09-15T06:52:57.873Z,14.86
2018-09-15T06:55:26.626Z,15.01
2018-09-15T06:57:54.835Z,15.17
2018-09-15T07:00:22.862Z,15.34
2018-09-15T07:02:51.786Z,15.42
2018-09-15T07:05:19.948Z,15.71
2018-09-15T07:07:47.996Z,15.90
2018-09-15T07:10:16.034Z,16.27
2018-09-15T07:12:44.068Z,16.79
2018-09-15T07:15:12.073Z,17.72
2018-09-15T07:17:40.089Z,18.48
2018-09-15T07:20:08.154Z,18.65
2018-09-15T07:22:36.191Z,18.49
2018-09-15T07:25:04.909Z,18.85
2018-09-15T07:27:33.957Z,19.66
2018-09-15T07:30:01.977Z,20.20
2018-09-15T07:32:30.217Z,20.32
2018-09-15T07:34:58.221Z,20.14
2018-09-15T07:37:26.296Z,20.27
2018-09-15T07:39:54.321Z,19.96
2018-09-15T07:42:23.668Z,19.55
2018-09-15T07:44:51.713Z,20.01
2018-09-15T07:47:19.785Z,19.96
2018-09-15T07:49:47.879Z,20.13
2018-09-15T07:52:15.894Z,19.90
2018-09-15T07:54:43.968Z,19.74
2018-09-15T07:57:12.085Z,19.63
2018-09-15T07:59:40.130Z,19.27
2018-09-15T08:02:13.408Z,19.51
2018-09-15T08:04:41.421Z,19.25
2018-09-15T08:07:09.496Z,19.41
2018-09-15T08:09:37.525Z,19.19
2018-09-15T08:12:05.564Z,18.91
2018-09-15T08:14:33.609Z,18.89
2018-09-15T08:17:01.609Z,18.93
2018-09-15T08:19:29.660Z,18.74
2018-09-15T08:21:57.820Z,18.86
2018-09-15T08:24:25.845Z,19.03
2018-09-15T08:26:53.857Z,19.49
2018-09-15T08:29:22.073Z,20.10
2018-09-15T08:31:50.618Z,20.53
2018-09-15T08:34:18.922Z,20.71
2018-09-15T08:36:47.098Z,20.95
2018-09-15T08:39:15.140Z,21.22
2018-09-15T08:41:43.229Z,21.17
2018-09-15T08:44:11.563Z,21.10
2018-09-15T08:46:39.737Z,21.06
2018-09-15T08:49:08.214Z,21.01
2018-09-15T08:51:36.334Z,20.75
2018-09-15T08:54:04.370Z,20.35
2018-09-15T08:56:33.530Z,20.31
2018-09-15T08:59:01.620Z,20.16
2018-09-15T09:01:29.740Z,20.35
2018-09-15T09:03:57.998Z,20.41
2018-09-15T09:06:26.085Z,20.45
2018-09-15T09:08:54.193Z,20.41
2018-09-15T09:11:22.218Z,20.32
2018-09-15T09:13:50.277Z,20.47
2018-09-15T09:16:18.315Z,20.51
2018-09-15T09:18:46.714Z,20.36
2018-09-15T09:21:14.870Z,20.49
2018-09-15T09:23:42.917Z,20.92
2018-09-15T09:26:11.139Z,21.04
2018-09-15T09:28:39.205Z,21.06
2018-09-15T09:31:07.471Z,21.01
2018-09-15T09:33:35.497Z,21.20
2018-09-15T09:36:03.549Z,21.11
2018-09-15T09:38:31.581Z,21.11
2018-09-15T09:40:59.595Z,20.85
2018-09-15T09:43:27.632Z,20.72
2018-09-15T09:45:55.644Z,20.67
2018-09-15T09:48:23.679Z,20.36
2018-09-15T09:50:51.676Z,20.33
2018-09-15T09:53:19.904Z,20.56
2018-09-15T09:55:47.937Z,20.57
2018-09-15T09:58:16.033Z,20.44
2018-09-15T10:00:49.564Z,20.12
2018-09-15T10:03:17.592Z,20.40
2018-09-15T10:05:45.637Z,20.14
2018-09-15T10:08:13.649Z,20.36
2018-09-15T10:10:41.656Z,19.87
2018-09-15T10:13:09.695Z,20.21
2018-09-15T10:15:37.740Z,20.17
2018-09-15T10:18:05.772Z,20.42
2018-09-15T10:20:33.897Z,20.86
2018-09-15T10:23:01.929Z,21.43
2018-09-15T10:25:29.967Z,21.57
2018-09-15T10:27:57.996Z,21.78
2018-09-15T10:30:26.021Z,22.01
2018-09-15T10:32:54.121Z,21.42
2018-09-15T10:35:22.152Z,21.52
2018-09-15T10:37:50.153Z,21.83
2018-09-15T10:40:18.233Z,21.66
2018-09-15T10:42:46.250Z,22.03
2018-09-15T10:45:14.401Z,21.80
2018-09-15T10:47:42.446Z,21.56
2018-09-15T10:50:10.659Z,21.40
2018-09-15T10:52:38.690Z,21.43
2018-09-15T10:55:06.719Z,21.37
2018-09-15T10:57:34.742Z,21.64
2018-09-15T11:00:02.732Z,21.42
2018-09-15T11:02:30.750Z,21.05
2018-09-15T11:04:58.805Z,21.00
2018-09-15T11:07:26.878Z,20.77
2018-09-15T11:09:54.891Z,20.78
2018-09-15T11:12:22.963Z,20.90
2018-09-15T11:14:50.965Z,20.48
2018-09-15T11:17:18.989Z,20.53
2018-09-15T11:19:46.998Z,20.68
2018-09-15T11:22:15.006Z,20.44
2018-09-15T11:24:42.996Z,20.20
2018-09-15T11:27:11.015Z,20.47
2018-09-15T11:29:39.024Z,20.42
2018-09-15T11:32:07.065Z,20.49
2018-09-15T11:34:35.069Z,20.50
2018-09-15T11:37:03.077Z,20.61
2018-09-15T11:39:31.080Z,20.73
2018-09-15T11:41:59.096Z,21.12
2018-09-15T11:44:27.152Z,20.96
2018-09-15T11:46:55.171Z,21.17
2018-09-15T11:49:23.166Z,21.55
2018-09-15T11:51:51.416Z,21.39
2018-09-15T11:54:19.440Z,21.51
2018-09-15T11:56:47.483Z,21.54
2018-09-15T11:59:15.470Z,21.19
2018-09-15T12:01:43.501Z,21.17
2018-09-15T12:04:11.520Z,21.12
2018-09-15T12:06:39.544Z,21.33
2018-09-15T12:09:08.493Z,20.94
2018-09-15T12:11:36.541Z,21.22
2018-09-15T12:14:04.590Z,21.48
2018-09-15T12:16:32.668Z,21.36
2018-09-15T12:19:00.668Z,21.04
2018-09-15T12:21:28.815Z,20.90
2018-09-15T12:23:56.778Z,21.15
2018-09-15T12:26:25.839Z,21.05
2018-09-15T12:28:53.957Z,21.23
2018-09-15T12:31:22.012Z,21.71
2018-09-15T12:33:50.077Z,21.72
2018-09-15T12:36:18.130Z,21.99
2018-09-15T12:38:46.202Z,21.68
2018-09-15T12:41:14.204Z,21.63
2018-09-15T12:43:42.202Z,21.90
2018-09-15T12:46:10.261Z,22.02
2018-09-15T12:48:38.269Z,22.37
2018-09-15T12:51:06.055Z,22.42
2018-09-15T12:53:34.097Z,22.48
2018-09-15T12:56:02.113Z,22.91
2018-09-15T12:58:30.156Z,23.01
2018-09-15T13:00:58.167Z,23.08
2018-09-15T13:03:26.199Z,22.70
2018-09-15T13:05:54.240Z,22.97
2018-09-15T13:08:22.259Z,23.05
2018-09-15T13:10:50.329Z,23.42
2018-09-15T13:13:18.392Z,23.36
2018-09-15T13:15:46.456Z,23.50
2018-09-15T13:18:14.532Z,23.57
2018-09-15T13:20:42.581Z,23.51
2018-09-15T13:23:10.609Z,23.43
2018-09-15T13:25:38.696Z,23.36
2018-09-15T13:28:06.844Z,23.16
2018-09-15T13:30:34.932Z,23.32
2018-09-15T13:33:02.968Z,23.19
2018-09-15T13:35:30.992Z,23.05
2018-09-15T13:37:59.104Z,22.89
2018-09-15T13:40:27.048Z,22.88
2018-09-15T13:42:55.197Z,22.58
2018-09-15T13:45:23.230Z,22.83
2018-09-15T13:47:51.293Z,22.56
2018-09-15T13:50:19.335Z,22.80
2018-09-15T13:52:47.373Z,23.14
2018-09-15T13:55:15.466Z,23.43
2018-09-15T13:57:43.502Z,23.28
2018-09-15T14:00:11.541Z,23.07
2018-09-15T14:02:42.463Z,22.88
2018-09-15T14:05:11.513Z,22.48
2018-09-15T14:07:39.890Z,22.38
2018-09-15T14:10:08.113Z,22.46
2018-09-15T14:12:36.120Z,22.46
2018-09-15T14:15:04.168Z,22.04
2018-09-15T14:17:32.400Z,21.83
2018-09-15T14:20:00.640Z,21.85
2018-09-15T14:22:28.715Z,22.13
2018-09-15T14:24:56.740Z,22.11
2018-09-15T14:27:24.729Z,22.09
2018-09-15T14:29:52.725Z,21.91
2018-09-15T14:32:20.761Z,21.85
2018-09-15T14:34:48.943Z,21.60
2018-09-15T14:37:17.156Z,21.42
2018-09-15T14:39:45.165Z,21.28
2018-09-15T14:42:13.200Z,21.03
2018-09-15T14:44:41.197Z,20.87
2018-09-15T14:47:09.285Z,20.78
2018-09-15T14:49:37.293Z,21.04
2018-09-15T14:52:05.485Z,21.00
2018-09-15T14:54:33.508Z,20.62
2018-09-15T14:57:01.549Z,20.73
2018-09-15T14:59:29.559Z,20.54
2018-09-15T15:01:57.581Z,20.32
2018-09-15T15:04:25.623Z,20.41
2018-09-15T15:06:53.604Z,20.34
2018-09-15T15:09:21.606Z,20.39
2018-09-15T15:11:49.648Z,20.19
2018-09-15T15:14:17.656Z,20.44
2018-09-15T15:16:45.692Z,20.68
2018-09-15T15:19:13.725Z,20.92
2018-09-15T15:21:41.804Z,20.88
2018-09-15T15:24:10.128Z,21.04
2018-09-15T15:26:38.211Z,21.18
2018-09-15T15:29:06.185Z,21.45
2018-09-15T15:31:34.308Z,21.48
2018-09-15T15:34:02.227Z,21.94
2018-09-15T15:36:30.244Z,22.13
2018-09-15T15:38:58.285Z,21.88
2018-09-15T15:41:26.287Z,21.89
2018-09-15T15:43:54.335Z,21.83
2018-09-15T15:46:22.353Z,22.01
2018-09-15T15:48:50.353Z,21.89
2018-09-15T15:51:18.412Z,21.51
2018-09-15T15:53:46.366Z,21.56
2018-09-15T15:56:14.378Z,21.36
2018-09-15T15:58:42.543Z,21.28
2018-09-15T16:01:10.416Z,20.83
2018-09-15T16:03:38.404Z,20.62
2018-09-15T16:06:06.597Z,20.45
2018-09-15T16:08:34.606Z,20.49
2018-09-15T16:11:02.705Z,20.51
2018-09-15T16:13:30.640Z,20.59
2018-09-15T16:15:58.686Z,20.55
2018-09-15T16:18:26.793Z,20.62
2018-09-15T16:20:54.809Z,20.89
2018-09-15T16:23:22.845Z,21.13
2018-09-15T16:25:50.840Z,21.39
2018-09-15T16:28:18.856Z,21.49
2018-09-15T16:30:46.861Z,21.59
2018-09-15T16:33:14.892Z,21.42
2018-09-15T16:35:42.958Z,21.43
2018-09-15T16:38:10.961Z,21.11
2018-09-15T16:40:39.197Z,21.25
2018-09-15T16:43:07.382Z,21.26
2018-09-15T16:45:35.767Z,21.22
2018-09-15T16:48:03.901Z,21.22
2018-09-15T16:50:31.968Z,21.15
2018-09-15T16:52:59.984Z,20.91
2018-09-15T16:55:28.030Z,20.83
2018-09-15T16:57:56.072Z,20.98
2018-09-15T17:00:24.072Z,20.96
2018-09-15T17:02:52.186Z,20.74
2018-09-15T17:05:20.248Z,20.62
2018-09-15T17:07:48.264Z,20.45
2018-09-15T17:10:16.411Z,20.37
2018-09-15T17:12:44.364Z,20.28
2018-09-15T17:15:12.480Z,20.21
2018-09-15T17:17:40.509Z,19.93
2018-09-15T17:20:08.525Z,19.93
2018-09-15T17:22:36.637Z,19.80
2018-09-15T17:25:04.589Z,19.82
2018-09-15T17:27:32.592Z,19.70
2018-09-15T17:30:00.594Z,19.56
2018-09-15T17:32:28.652Z,19.53
2018-09-15T17:34:56.656Z,19.23
2018-09-15T17:37:24.689Z,19.28
2018-09-15T17:39:53.733Z,19.18
2018-09-15T17:42:21.800Z,19.17
2018-09-15T17:44:49.850Z,19.16
2018-09-15T17:47:19.889Z,18.94
2018-09-15T17:49:47.962Z,18.94
2018-09-15T17:52:16.045Z,19.12
2018-09-15T17:54:44.155Z,19.11
2018-09-15T17:57:12.096Z,19.19
2018-09-15T17:59:40.117Z,19.25
2018-09-15T18:02:08.184Z,19.17
2018-09-15T18:04:36.217Z,19.11
2018-09-15T18:07:04.243Z,19.09
2018-09-15T18:09:32.292Z,19.14
2018-09-15T18:12:00.328Z,19.08
2018-09-15T18:14:28.412Z,19.15
2018-09-15T18:16:56.424Z,19.27
2018-09-15T18:19:25.441Z,19.22
2018-09-15T18:21:53.525Z,19.38
2018-09-15T18:24:21.536Z,19.29
2018-09-15T18:26:49.577Z,19.42
2018-09-15T18:29:17.584Z,19.49
2018-09-15T18:31:45.635Z,19.39
2018-09-15T18:34:13.701Z,19.51
2018-09-15T18:36:41.903Z,19.57
2018-09-15T18:39:10.721Z,19.62
2018-09-15T18:41:38.779Z,19.58
2018-09-15T18:44:07.036Z,19.58
2018-09-15T18:46:35.313Z,19.54
2018-09-15T18:49:03.637Z,19.44
2018-09-15T18:51:31.656Z,19.36
2018-09-15T18:53:59.878Z,19.26
2018-09-15T18:56:28.032Z,19.12
2018-09-15T18:58:55.991Z,18.86
2018-09-15T19:01:25.152Z,18.80
2018-09-15T19:03:53.132Z,18.69
2018-09-15T19:06:22.170Z,18.60
2018-09-15T19:08:50.200Z,18.47
2018-09-15T19:11:18.208Z,18.39
2018-09-15T19:13:46.208Z,18.22
2018-09-15T19:16:14.237Z,18.10
2018-09-15T19:18:42.253Z,17.96
2018-09-15T19:21:10.316Z,17.86
2018-09-15T19:23:38.288Z,17.74
2018-09-15T19:26:06.289Z,17.60
2018-09-15T19:28:34.321Z,17.53
2018-09-15T19:31:02.417Z,17.48
2018-09-15T19:33:30.401Z,17.38
2018-09-15T19:35:58.548Z,17.36
2018-09-15T19:38:26.639Z,17.23
2018-09-15T19:40:54.656Z,17.22
2018-09-15T19:43:22.736Z,17.16
2018-09-15T19:45:50.961Z,17.19
2018-09-15T19:48:19.013Z,17.17
2018-09-15T19:50:47.009Z,17.04
2018-09-15T19:53:15.076Z,16.98
2018-09-15T19:55:43.101Z,17.00
2018-09-15T19:58:12.194Z,16.95
2018-09-15T20:00:40.206Z,16.87
2018-09-15T20:03:08.240Z,16.84
2018-09-15T20:05:36.264Z,16.88
2018-09-15T20:08:04.512Z,16.90
2018-09-15T20:10:32.515Z,16.89
2018-09-15T20:13:00.653Z,16.89
2018-09-15T20:15:30.817Z,16.85
2018-09-15T20:17:58.732Z,16.78
2018-09-15T20:20:26.430Z,16.65
2018-09-15T20:22:55.480Z,16.63
2018-09-15T20:25:23.505Z,16.46
2018-09-15T20:27:51.561Z,16.32
2018-09-15T20:30:19.848Z,16.20
2018-09-15T20:32:47.988Z,16.11
2018-09-15T20:35:15.868Z,16.05
2018-09-15T20:37:43.913Z,16.01
2018-09-15T20:40:11.954Z,15.95
2018-09-15T20:42:40.497Z,15.80
2018-09-15T20:45:08.941Z,15.83
2018-09-15T20:47:37.451Z,15.87
2018-09-15T20:50:05.560Z,15.90
2018-09-15T20:52:33.591Z,15.91
2018-09-15T20:57:28.361Z,15.76
2018-09-15T20:59:56.316Z,15.74
2018-09-15T21:02:24.359Z,15.68
2018-09-15T21:04:52.348Z,15.68
2018-09-15T21:07:20.432Z,15.65
2018-09-15T21:09:48.457Z,15.59
2018-09-15T21:12:16.453Z,15.53
2018-09-15T21:14:44.483Z,15.45
2018-09-15T21:17:12.760Z,15.26
2018-09-15T21:19:40.864Z,15.15
2018-09-15T21:22:08.868Z,15.22
2018-09-15T21:24:36.864Z,15.22
2018-09-15T21:27:04.848Z,15.21
2018-09-15T21:29:32.903Z,15.19
2018-09-15T21:32:01.392Z,15.23
2018-09-15T21:34:29.492Z,15.14
2018-09-15T21:36:57.877Z,15.17
2018-09-15T21:39:25.904Z,15.09
2018-09-15T21:41:53.898Z,15.00
2018-09-15T21:44:21.967Z,14.91
2018-09-15T21:46:49.984Z,14.99
2018-09-15T21:49:18.077Z,14.93
2018-09-15T21:51:46.093Z,14.95
2018-09-15T21:54:14.094Z,14.88
2018-09-15T21:56:42.204Z,14.82
2018-09-15T21:59:10.220Z,14.82
2018-09-15T22:01:38.223Z,14.60
2018-09-15T22:04:11.600Z,14.66
2018-09-15T22:06:39.590Z,14.67
2018-09-15T22:09:08.925Z,14.68
2018-09-15T22:11:36.959Z,14.64
2018-09-15T22:14:05.333Z,14.56
2018-09-15T22:16:33.544Z,14.50
2018-09-15T22:19:01.658Z,14.49
2018-09-15T22:21:29.666Z,14.45
2018-09-15T22:23:57.704Z,14.44
2018-09-15T22:26:25.967Z,14.40
2018-09-15T22:28:53.956Z,14.37
2018-09-15T22:31:22.008Z,14.37
2018-09-15T22:33:50.028Z,14.36
2018-09-15T22:36:18.043Z,14.36
2018-09-15T22:38:48.016Z,14.34
2018-09-15T22:41:16.017Z,14.26
2018-09-15T22:43:44.013Z,14.24
2018-09-15T22:46:12.045Z,14.23
2018-09-15T22:48:40.056Z,14.17
2018-09-15T22:51:08.245Z,14.14
2018-09-15T22:53:36.324Z,14.11
2018-09-15T22:56:04.333Z,14.14
2018-09-15T22:58:32.310Z,14.15
2018-09-15T23:01:00.348Z,14.07
2018-09-15T23:03:28.537Z,13.97
2018-09-15T23:05:56.529Z,13.95
2018-09-15T23:08:24.533Z,13.91
2018-09-15T23:10:52.532Z,13.95
2018-09-15T23:13:20.508Z,13.98
2018-09-15T23:15:48.533Z,14.03
2018-09-15T23:18:16.692Z,14.06
2018-09-15T23:20:44.704Z,14.03
2018-09-15T23:23:12.760Z,14.03
2018-09-15T23:25:40.803Z,14.04
2018-09-15T23:28:08.809Z,14.01
2018-09-15T23:30:36.780Z,13.96
2018-09-15T23:33:05.380Z,13.92
2018-09-15T23:35:33.465Z,13.87
2018-09-15T23:38:01.500Z,13.73
2018-09-15T23:40:29.507Z,13.67
2018-09-15T23:42:57.491Z,13.77
2018-09-15T23:45:25.483Z,13.77
2018-09-15T23:47:53.476Z,13.79
2018-09-15T23:50:21.453Z,13.73
2018-09-15T23:52:49.441Z,13.77
2018-09-15T23:55:17.493Z,13.79
2018-09-15T23:57:45.489Z,13.79
